Time;durP1;ratioP1;P1;durP2;ratioP2;P2;SDS_P1;SDS_P2;PMS_P1;PMS_P2;Temp;Humidity;BMP_temperature;BMP_pressure;BME280_temperature;BME280_humidity;BME280_pressure;Samples;Min_cycle;Max_cycle;Signal;HPM_P1;HPM_P2
2021/12/21 00:02:07;;;;;;;5.60;1.30;;;;;;;-3.41;86.96;100592.74;102067;1320;72288;-69
2021/12/21 00:04:55;;;;;;;7.40;1.80;;;;;;;-3.37;85.56;100591.84;101701;1313;66977;-69
2021/12/21 00:07:44;;;;;;;6.70;1.60;;;;;;;-3.36;84.55;100594.43;101985;1313;71816;-69
2021/12/21 00:10:33;;;;;;;7.80;1.90;;;;;;;-3.35;83.04;100593.37;102182;1319;59684;-70
2021/12/21 00:13:53;;;;;;;8.30;1.60;;;;;;;-3.33;82.17;100592.48;101974;1316;60219;-69
2021/12/21 00:23:17;;;;;;;6.50;1.60;;;;;;;-3.21;78.55;100598.40;101769;1317;73472;-69
2021/12/21 00:25:53;;;;;;;7.90;1.90;;;;;;;-3.13;77.63;100601.95;101923;1314;59774;-69
2021/12/21 00:31:36;;;;;;;8.00;1.90;;;;;;;-2.96;76.41;100599.29;101905;1317;73330;-69
2021/12/21 00:34:22;;;;;;;5.50;1.40;;;;;;;-2.89;76.19;100602.16;101899;1313;68389;-69
2021/12/21 00:37:12;;;;;;;5.60;1.40;;;;;;;-2.86;74.74;100600.36;102294;1317;72972;-70
2021/12/21 00:39:59;;;;;;;6.70;1.60;;;;;;;-2.82;74.10;100611.78;101905;1313;59812;-69
2021/12/21 00:42:45;;;;;;;6.00;1.50;;;;;;;-2.80;74.78;100613.30;101327;1313;1003771;-70
2021/12/21 00:45:32;;;;;;;6.70;1.20;;;;;;;-2.79;79.53;100623.39;102298;1313;73022;-69
2021/12/21 00:48:21;;;;;;;5.90;1.40;;;;;;;-2.80;82.77;100628.95;102318;1313;68462;-70
2021/12/21 00:51:08;;;;;;;6.60;1.40;;;;;;;-2.79;84.67;100624.60;101636;1315;1005894;-70
2021/12/21 00:53:55;;;;;;;3.90;0.90;;;;;;;-2.80;85.98;100625.49;102566;1310;59724;-71
2021/12/21 00:56:42;;;;;;;5.50;1.60;;;;;;;-2.81;87.25;100633.30;102376;1313;60038;-70
2021/12/21 00:59:28;;;;;;;5.80;1.20;;;;;;;-2.84;88.58;100630.40;102235;1313;71949;-70
2021/12/21 01:02:15;;;;;;;5.70;1.70;;;;;;;-2.83;88.60;100630.91;102625;1314;68014;-70
2021/12/21 01:05:08;;;;;;;5.60;1.40;;;;;;;-2.83;89.03;100627.25;102183;1310;71607;-70
2021/12/21 01:07:58;;;;;;;6.70;1.40;;;;;;;-2.81;89.12;100627.58;102318;1317;59609;-71
2021/12/21 01:16:46;;;;;;;8.10;1.30;;;;;;;-2.66;88.70;100638.84;102158;1314;66965;-70
2021/12/21 01:19:42;;;;;;;6.60;1.60;;;;;;;-2.62;88.24;100646.42;102036;1313;71826;-71
2021/12/21 01:31:16;;;;;;;6.10;1.50;;;;;;;-2.61;86.69;100639.80;102599;1310;66915;-71
2021/12/21 01:37:22;;;;;;;6.40;1.50;;;;;;;-2.59;85.80;100643.61;102370;1311;59786;-71
2021/12/21 01:43:44;;;;;;;4.80;1.10;;;;;;;-2.55;84.80;100641.82;102396;1311;73348;-70
2021/12/21 01:49:40;;;;;;;5.40;1.50;;;;;;;-2.54;84.34;100645.27;102568;1317;72840;-70
2021/12/21 01:52:28;;;;;;;6.30;1.40;;;;;;;-2.53;84.41;100642.48;102138;1314;59800;-70
2021/12/21 01:55:16;;;;;;;5.90;1.30;;;;;;;-2.53;83.94;100643.18;102405;1314;60452;-69
2021/12/21 01:58:03;;;;;;;4.90;1.30;;;;;;;-2.53;84.10;100641.95;102376;1313;73226;-70
2021/12/21 02:00:51;;;;;;;7.10;1.40;;;;;;;-2.52;84.03;100639.17;102330;1310;66988;-68
2021/12/21 02:03:38;;;;;;;7.50;1.80;;;;;;;-2.52;84.11;100641.60;101761;1313;1003154;-69
2021/12/21 02:06:29;;;;;;;4.40;1.10;;;;;;;-2.52;83.65;100643.69;102578;1311;59818;-69
2021/12/21 02:09:19;;;;;;;5.80;1.50;;;;;;;-2.52;83.76;100642.98;102569;1310;60289;-69
2021/12/21 02:12:15;;;;;;;9.00;2.20;;;;;;;-2.49;83.51;100636.34;102705;1311;74008;-68
2021/12/21 02:15:02;;;;;;;6.20;1.40;;;;;;;-2.46;83.34;100636.45;102652;1311;68624;-68
2021/12/21 02:20:44;;;;;;;7.70;1.90;;;;;;;-2.39;83.22;100646.08;102157;1312;59689;-68
2021/12/21 02:23:35;;;;;;;6.60;1.80;;;;;;;-2.35;83.45;100654.19;102307;1310;61133;-69
2021/12/21 02:29:39;;;;;;;5.30;1.60;;;;;;;-2.35;83.21;100657.67;102251;1314;69156;-68
2021/12/21 02:32:25;;;;;;;4.90;1.40;;;;;;;-2.37;82.96;100643.12;102673;1311;71838;-69
2021/12/21 02:35:12;;;;;;;5.80;1.30;;;;;;;-2.38;83.04;100647.12;102431;1310;59696;-69
2021/12/21 02:37:58;;;;;;;7.00;1.60;;;;;;;-2.41;82.51;100647.34;102358;1314;59564;-69
2021/12/21 02:40:46;;;;;;;15.50;4.90;;;;;;;-2.46;81.84;100651.05;101716;1310;1003666;-68
2021/12/21 02:43:36;;;;;;;35.50;14.10;;;;;;;-2.49;82.71;100655.10;102373;1309;66666;-70
2021/12/21 02:46:24;;;;;;;16.30;5.20;;;;;;;-2.51;83.36;100656.34;102110;1317;73012;-70
2021/12/21 02:49:13;;;;;;;8.90;2.90;;;;;;;-2.50;83.90;100659.98;102388;1310;59712;-69
2021/12/21 02:52:00;;;;;;;7.50;1.80;;;;;;;-2.51;84.04;100658.08;102222;1310;59593;-69
2021/12/21 02:54:46;;;;;;;5.10;1.40;;;;;;;-2.51;83.55;100661.57;102020;1309;72162;-69
2021/12/21 02:57:33;;;;;;;5.50;1.70;;;;;;;-2.48;83.31;100658.58;102369;1313;68293;-69
2021/12/21 03:00:20;;;;;;;5.70;1.30;;;;;;;-2.45;83.19;100658.52;102505;1314;70339;-68
2021/12/21 03:03:12;;;;;;;5.40;1.30;;;;;;;-2.45;82.90;100659.74;102354;1313;59602;-69
2021/12/21 03:06:03;;;;;;;5.40;1.40;;;;;;;-2.47;83.30;100661.85;102482;1310;60463;-69
2021/12/21 03:08:56;;;;;;;4.90;1.20;;;;;;;-2.48;83.58;100656.83;102409;1314;72451;-69
2021/12/21 03:11:56;;;;;;;6.70;1.50;;;;;;;-2.48;83.28;100660.65;102241;1314;66810;-69
2021/12/21 03:14:43;;;;;;;5.10;1.40;;;;;;;-2.51;83.24;100657.39;102621;1310;72694;-69
2021/12/21 03:17:30;;;;;;;4.30;1.20;;;;;;;-2.56;83.32;100660.07;102042;1314;59768;-69
2021/12/21 03:20:19;;;;;;;5.40;1.50;;;;;;;-2.59;83.41;100660.10;102516;1311;59720;-70
2021/12/21 03:23:05;;;;;;;8.00;1.40;;;;;;;-2.62;83.62;100662.06;101538;1314;1003756;-71
2021/12/21 03:25:53;;;;;;;4.60;1.10;;;;;;;-2.64;83.46;100661.05;102209;1311;69705;-71
2021/12/21 03:28:40;;;;;;;5.70;1.30;;;;;;;-2.67;83.73;100660.05;102154;1310;73195;-71
2021/12/21 03:31:26;;;;;;;7.80;2.10;;;;;;;-2.68;83.89;100650.86;102449;1310;59735;-69
2021/12/21 03:34:13;;;;;;;8.60;1.60;;;;;;;-2.68;83.98;100655.20;102272;1317;59721;-69
2021/12/21 03:37:00;;;;;;;6.40;1.50;;;;;;;-2.67;83.66;100655.37;102304;1311;73373;-69
2021/12/21 03:39:50;;;;;;;5.20;1.10;;;;;;;-2.65;83.69;100650.12;102056;1311;68102;-69
2021/12/21 03:42:37;;;;;;;7.80;1.80;;;;;;;-2.64;83.71;100649.08;102666;1310;70499;-70
2021/12/21 03:45:24;;;;;;;6.60;1.40;;;;;;;-2.64;83.22;100645.60;102033;1316;59802;-70
2021/12/21 03:48:14;;;;;;;6.50;1.50;;;;;;;-2.64;82.82;100649.95;102401;1312;59691;-72
2021/12/21 03:51:01;;;;;;;7.70;1.40;;;;;;;-2.64;83.24;100647.48;102329;1310;73567;-72
2021/12/21 03:53:50;;;;;;;6.40;1.50;;;;;;;-2.66;82.52;100648.22;102320;1313;68134;-72
2021/12/21 03:56:41;;;;;;;5.90;1.40;;;;;;;-2.72;82.36;100646.91;102305;1314;70385;-71
2021/12/21 03:59:29;;;;;;;6.00;1.40;;;;;;;-2.79;82.81;100649.27;102295;1313;59770;-71
2021/12/21 04:02:18;;;;;;;5.30;1.50;;;;;;;-2.82;83.11;100647.58;102508;1310;59628;-69
2021/12/21 04:05:07;;;;;;;5.10;1.60;;;;;;;-2.86;83.57;100648.84;102267;1311;73396;-68
2021/12/21 04:07:54;;;;;;;5.70;1.90;;;;;;;-2.89;83.38;100649.92;102527;1310;66316;-69
2021/12/21 04:10:42;;;;;;;7.20;1.90;;;;;;;-2.91;83.76;100650.29;102489;1310;72668;-69
2021/12/21 04:13:31;;;;;;;6.50;2.10;;;;;;;-2.93;83.69;100648.73;102321;1311;59849;-69
2021/12/21 04:16:18;;;;;;;9.20;2.40;;;;;;;-2.92;84.06;100648.57;101839;1311;1003190;-70
2021/12/21 04:19:06;;;;;;;27.20;11.40;;;;;;;-2.88;84.34;100656.00;102979;1314;73309;-69
2021/12/21 04:21:54;;;;;;;20.10;9.40;;;;;;;-2.85;85.05;100654.91;102562;1311;68914;-70
2021/12/21 04:24:42;;;;;;;18.80;8.10;;;;;;;-2.87;85.64;100656.85;102545;1310;72197;-70
2021/12/21 04:27:34;;;;;;;20.30;9.20;;;;;;;-2.90;85.50;100660.69;102583;1310;59716;-71
2021/12/21 04:30:22;;;;;;;27.80;11.20;;;;;;;-2.93;86.10;100663.52;101861;1310;1003571;-70
2021/12/21 04:33:09;;;;;;;22.70;9.40;;;;;;;-2.98;86.35;100667.40;102428;1311;73661;-70
2021/12/21 04:35:57;;;;;;;27.20;11.20;;;;;;;-3.06;86.74;100664.38;102279;1310;67628;-70
2021/12/21 04:38:48;;;;;;;26.70;10.60;;;;;;;-3.12;86.97;100662.70;102164;1310;71334;-70
2021/12/21 04:41:36;;;;;;;26.90;11.90;;;;;;;-3.17;87.46;100657.20;102451;1310;59609;-69
2021/12/21 04:44:34;;;;;;;21.20;8.70;;;;;;;-3.22;87.45;100656.40;102239;1311;60731;-69
2021/12/21 04:47:21;;;;;;;15.90;6.30;;;;;;;-3.21;87.75;100656.55;102517;1311;70707;-70
2021/12/21 04:50:11;;;;;;;13.80;7.00;;;;;;;-3.20;87.58;100651.34;102207;1314;66675;-70
2021/12/21 04:52:59;;;;;;;11.70;4.20;;;;;;;-3.19;87.64;100649.58;102424;1311;73282;-70
2021/12/21 04:55:46;;;;;;;9.90;2.90;;;;;;;-3.16;87.54;100651.10;102687;1314;59822;-71
2021/12/21 04:58:35;;;;;;;8.80;2.70;;;;;;;-3.17;87.52;100650.08;102933;1311;59613;-70
2021/12/21 05:01:22;;;;;;;9.70;3.00;;;;;;;-3.18;87.39;100649.57;102704;1314;73405;-70
2021/12/21 05:04:10;;;;;;;12.10;3.60;;;;;;;-3.18;87.86;100650.98;102420;1313;66998;-70
2021/12/21 05:06:58;;;;;;;13.10;5.30;;;;;;;-3.19;88.05;100652.20;102904;1311;72863;-73
2021/12/21 05:09:54;;;;;;;13.40;5.80;;;;;;;-3.20;87.82;100653.77;102579;1313;59796;-72
2021/12/21 05:12:42;;;;;;;8.60;3.50;;;;;;;-3.22;87.51;100651.88;102729;1310;59711;-71
2021/12/21 05:15:30;;;;;;;6.50;2.30;;;;;;;-3.27;88.05;100652.98;102710;1310;71984;-70
2021/12/21 05:18:18;;;;;;;7.60;2.40;;;;;;;-3.28;88.40;100656.81;102488;1310;66835;-71
2021/12/21 05:21:06;;;;;;;7.40;2.60;;;;;;;-3.27;88.35;100648.11;102693;1310;71452;-70
2021/12/21 05:23:53;;;;;;;6.90;2.30;;;;;;;-3.26;88.75;100655.73;102344;1314;59789;-69
2021/12/21 05:26:41;;;;;;;7.90;2.40;;;;;;;-3.21;88.93;100666.80;102786;1310;59835;-70
2021/12/21 05:29:31;;;;;;;7.70;2.30;;;;;;;-3.21;89.37;100668.38;102597;1311;71897;-70
2021/12/21 05:32:19;;;;;;;6.10;1.50;;;;;;;-3.26;90.10;100663.38;102528;1313;68951;-70
2021/12/21 05:35:08;;;;;;;6.50;1.60;;;;;;;-3.33;90.67;100659.46;102369;1315;71668;-70
2021/12/21 05:38:00;;;;;;;6.10;1.60;;;;;;;-3.39;90.65;100654.15;102147;1313;59742;-70
2021/12/21 05:40:48;;;;;;;6.30;1.80;;;;;;;-3.43;90.79;100643.25;102469;1310;59599;-69
2021/12/21 05:43:35;;;;;;;6.00;2.00;;;;;;;-3.44;90.28;100641.00;102691;1310;72021;-69
2021/12/21 05:46:22;;;;;;;5.70;1.90;;;;;;;-3.43;90.04;100641.17;102613;1311;67338;-70
2021/12/21 05:49:09;;;;;;;5.60;1.70;;;;;;;-3.46;89.26;100637.40;102067;1319;70365;-70
2021/12/21 05:52:00;;;;;;;6.40;2.10;;;;;;;-3.49;89.06;100635.34;102577;1311;59778;-71
2021/12/21 05:54:47;;;;;;;12.60;2.70;;;;;;;-3.52;88.37;100637.98;102119;1311;60519;-70
2021/12/21 05:57:35;;;;;;;7.50;2.20;;;;;;;-3.58;88.01;100641.69;101386;1314;1004338;-70
2021/12/21 06:00:30;;;;;;;6.70;2.10;;;;;;;-3.63;87.80;100645.39;102290;1311;169944;-70
2021/12/21 06:03:17;;;;;;;7.00;2.00;;;;;;;-3.71;87.45;100645.97;102843;1314;71353;-71
2021/12/21 06:06:10;;;;;;;6.30;1.80;;;;;;;-3.79;87.14;100651.43;102463;1310;59730;-69
2021/12/21 06:09:02;;;;;;;8.90;1.80;;;;;;;-3.89;86.88;100654.48;102369;1313;60353;-70
2021/12/21 06:26:50;;;;;;;8.90;2.20;;;;;;;-4.34;87.96;100660.18;102762;1310;73274;-70
2021/12/21 06:29:38;;;;;;;6.70;2.50;;;;;;;-4.34;88.32;100662.78;102701;1310;67117;-70
2021/12/21 06:32:25;;;;;;;7.50;2.20;;;;;;;-4.31;88.27;100663.80;102605;1314;71908;-74
2021/12/21 06:35:15;;;;;;;8.00;2.30;;;;;;;-4.28;88.47;100666.04;102489;1311;59600;-75
2021/12/21 06:38:04;;;;;;;8.90;3.10;;;;;;;-4.24;88.42;100667.39;102695;1313;59574;-75
2021/12/21 06:40:53;;;;;;;9.40;3.10;;;;;;;-4.21;88.82;100664.95;102900;1311;73088;-70
2021/12/21 06:43:41;;;;;;;11.00;2.90;;;;;;;-4.19;88.66;100662.17;102539;1310;68234;-70
2021/12/21 06:52:37;;;;;;;14.40;4.70;;;;;;;-4.23;88.45;100659.59;103047;1310;60009;-71
2021/12/21 06:55:24;;;;;;;14.70;4.00;;;;;;;-4.25;88.43;100662.73;102610;1310;73128;-71
2021/12/21 06:58:12;;;;;;;12.40;4.20;;;;;;;-4.29;88.50;100662.76;102407;1310;68082;-71
2021/12/21 07:01:01;;;;;;;12.40;3.50;;;;;;;-4.32;88.69;100664.85;102733;1311;72852;-72
2021/12/21 07:03:49;;;;;;;10.30;3.70;;;;;;;-4.34;88.86;100663.48;102660;1311;59719;-71
2021/12/21 07:06:39;;;;;;;12.20;4.50;;;;;;;-4.33;88.99;100667.13;102580;1314;59679;-71
2021/12/21 07:09:38;;;;;;;11.80;3.90;;;;;;;-4.30;89.09;100663.45;102374;1310;72130;-69
2021/12/21 07:18:29;;;;;;;21.80;6.30;;;;;;;-4.15;89.03;100664.38;102634;1310;59796;-70
2021/12/21 07:21:16;;;;;;;24.30;6.50;;;;;;;-4.11;88.70;100661.58;102546;1311;59740;-70
2021/12/21 07:24:05;;;;;;;22.90;6.70;;;;;;;-4.09;88.67;100655.34;102472;1311;71206;-70
2021/12/21 07:26:53;;;;;;;16.70;6.30;;;;;;;-4.09;88.46;100656.20;102013;1311;1003145;-70
2021/12/21 07:29:40;;;;;;;15.00;5.40;;;;;;;-4.09;88.61;100651.52;101956;1311;1003117;-71
2021/12/21 07:32:28;;;;;;;15.30;6.60;;;;;;;-4.08;88.60;100646.83;103025;1311;59679;-70
2021/12/21 07:35:16;;;;;;;17.00;6.60;;;;;;;-4.07;88.41;100642.84;102907;1310;60628;-70
2021/12/21 07:38:04;;;;;;;21.10;7.80;;;;;;;-4.03;88.47;100656.66;102917;1311;73744;-70
2021/12/21 07:40:52;;;;;;;16.50;6.90;;;;;;;-3.97;88.26;100651.77;102765;1314;66599;-70
2021/12/21 07:43:40;;;;;;;16.60;6.50;;;;;;;-3.90;88.09;100655.70;102512;1310;72784;-70
2021/12/21 07:46:28;;;;;;;17.20;6.60;;;;;;;-3.85;87.97;100661.71;102424;1314;59563;-70
2021/12/21 07:49:16;;;;;;;14.00;4.80;;;;;;;-3.80;87.62;100666.52;102566;1312;60548;-69
2021/12/21 07:52:07;;;;;;;19.00;6.60;;;;;;;-3.80;87.17;100665.83;102077;1310;1002634;-70
2021/12/21 07:54:55;;;;;;;21.80;7.20;;;;;;;-3.78;87.36;100670.84;101698;1311;1002582;-70
2021/12/21 07:57:43;;;;;;;19.50;6.60;;;;;;;-3.73;87.40;100668.90;102591;1311;73106;-70
2021/12/21 08:00:31;;;;;;;24.00;6.90;;;;;;;-3.66;87.42;100668.48;101653;1316;1003119;-70
2021/12/21 08:03:34;;;;;;;21.70;7.20;;;;;;;-3.59;87.18;100666.68;102711;1311;59573;-70
2021/12/21 08:06:23;;;;;;;19.00;7.00;;;;;;;-3.49;87.21;100671.60;102951;1310;73564;-71
2021/12/21 08:09:11;;;;;;;18.70;6.80;;;;;;;-3.33;87.32;100671.62;102985;1311;66839;-70
2021/12/21 08:12:16;;;;;;;17.20;6.60;;;;;;;-3.19;86.75;100670.25;102337;1314;71707;-71
2021/12/21 08:15:06;;;;;;;20.40;6.60;;;;;;;-3.05;86.62;100669.38;102223;1313;59703;-74
2021/12/21 08:17:57;;;;;;;15.80;6.30;;;;;;;-2.89;86.22;100661.73;102858;1310;60839;-71
2021/12/21 08:20:45;;;;;;;17.80;6.90;;;;;;;-2.78;85.48;100661.06;102411;1313;72211;-71
2021/12/21 08:23:35;;;;;;;16.80;5.90;;;;;;;-2.68;85.49;100653.81;102581;1310;65980;-71
2021/12/21 08:26:22;;;;;;;14.20;5.20;;;;;;;-2.64;84.77;100648.02;102333;1310;73476;-70
2021/12/21 08:29:10;;;;;;;12.90;5.00;;;;;;;-2.62;85.09;100648.69;102295;1310;59979;-70
2021/12/21 08:31:58;;;;;;;18.40;5.50;;;;;;;-2.56;84.71;100645.98;102336;1313;60651;-70
2021/12/21 08:34:46;;;;;;;11.90;4.70;;;;;;;-2.46;84.53;100652.28;102488;1313;1003851;-69
2021/12/21 08:37:35;;;;;;;15.70;5.70;;;;;;;-2.35;84.51;100649.34;102772;1310;68258;-69
2021/12/21 08:40:23;;;;;;;14.80;5.90;;;;;;;-2.15;84.45;100656.14;102464;1310;72382;-70
2021/12/21 08:43:15;;;;;;;16.00;5.50;;;;;;;-1.33;84.59;100650.88;103107;1311;59676;-69
2021/12/21 08:46:07;;;;;;;14.70;5.70;;;;;;;-0.63;80.50;100648.77;102577;1311;59784;-71
2021/12/21 08:48:55;;;;;;;15.10;6.00;;;;;;;-0.45;78.20;100651.34;102515;1310;73960;-70
2021/12/21 08:51:42;;;;;;;13.10;5.30;;;;;;;0.34;77.46;100646.09;103039;1311;68067;-71
2021/12/21 08:54:29;;;;;;;15.40;6.00;;;;;;;1.24;76.01;100647.60;102722;1314;73375;-70
2021/12/21 08:57:17;;;;;;;12.70;4.60;;;;;;;2.43;72.89;100646.77;102867;1310;59720;-69
2021/12/21 09:00:10;;;;;;;12.80;5.30;;;;;;;2.72;68.97;100643.15;102320;1311;60358;-71
2021/12/21 09:02:57;;;;;;;13.10;4.80;;;;;;;2.07;67.86;100642.05;102631;1310;73697;-70
2021/12/21 09:05:46;;;;;;;10.30;4.70;;;;;;;1.44;68.29;100647.02;102409;1313;68222;-71
2021/12/21 09:08:33;;;;;;;11.70;4.60;;;;;;;0.86;69.07;100644.52;102601;1311;73536;-72
2021/12/21 09:11:20;;;;;;;10.00;4.10;;;;;;;0.32;70.24;100651.92;102609;1316;59679;-71
2021/12/21 09:14:07;;;;;;;12.20;4.10;;;;;;;-0.00;72.23;100660.76;102002;1311;1015957;-72
2021/12/21 09:16:54;;;;;;;15.60;5.20;;;;;;;-0.13;73.47;100668.20;102842;1314;72076;-71
2021/12/21 09:19:42;;;;;;;17.50;5.90;;;;;;;-0.27;73.47;100662.25;102381;1312;66309;-70
2021/12/21 09:22:29;;;;;;;19.80;5.40;;;;;;;-0.44;73.51;100671.52;102634;1311;71906;-70
2021/12/21 09:25:18;;;;;;;19.60;6.00;;;;;;;-0.66;74.07;100678.98;102640;1310;60662;-71
2021/12/21 09:28:05;;;;;;;19.50;6.30;;;;;;;-0.86;75.95;100683.23;102671;1317;61852;-69
2021/12/21 09:30:53;;;;;;;19.60;6.70;;;;;;;-1.05;76.10;100685.36;102463;1317;72090;-69
2021/12/21 09:33:40;;;;;;;16.60;6.40;;;;;;;-1.19;77.13;100686.16;102564;1310;68652;-70
2021/12/21 09:36:29;;;;;;;12.90;5.10;;;;;;;-1.31;77.54;100686.92;102868;1311;71958;-70
2021/12/21 09:39:17;;;;;;;14.50;4.70;;;;;;;-1.43;78.28;100690.27;102789;1311;61287;-69
2021/12/21 09:42:05;;;;;;;13.20;4.70;;;;;;;-1.58;78.91;100690.70;102365;1310;59632;-70
2021/12/21 09:44:53;;;;;;;11.50;4.10;;;;;;;-1.72;79.87;100689.38;102447;1317;73359;-69
2021/12/21 09:47:42;;;;;;;12.10;4.60;;;;;;;-1.75;80.62;100689.41;102549;1311;68184;-70
2021/12/21 09:50:31;;;;;;;11.00;4.20;;;;;;;-1.72;80.97;100689.20;102772;1311;72985;-69
2021/12/21 09:53:19;;;;;;;12.50;4.40;;;;;;;-1.74;81.05;100688.02;102152;1317;59839;-70
2021/12/21 09:56:07;;;;;;;12.30;4.10;;;;;;;-1.82;81.43;100685.55;102573;1314;59688;-70
2021/12/21 09:58:55;;;;;;;9.20;3.90;;;;;;;-1.85;81.40;100686.12;102248;1313;73683;-70
2021/12/21 10:01:43;;;;;;;10.90;3.40;;;;;;;-1.84;81.52;100680.54;103083;1310;68045;-70
2021/12/21 10:04:30;;;;;;;11.20;3.30;;;;;;;-1.70;81.47;100678.73;102429;1310;72949;-70
2021/12/21 10:07:24;;;;;;;9.60;3.50;;;;;;;-1.52;81.12;100680.85;102343;1310;59798;-71
2021/12/21 10:10:18;;;;;;;11.10;4.10;;;;;;;0.44;80.60;100672.59;102627;1311;60592;-71
2021/12/21 10:13:17;;;;;;;9.80;4.00;;;;;;;3.57;70.27;100660.26;102954;1310;72099;-71
2021/12/21 10:16:06;;;;;;;11.60;4.40;;;;;;;4.85;62.61;100647.48;102694;1311;68347;-71
2021/12/21 10:18:53;;;;;;;12.30;5.50;;;;;;;4.64;60.28;100648.20;102744;1310;72431;-71
2021/12/21 10:21:46;;;;;;;13.70;5.30;;;;;;;4.14;60.61;100643.82;102741;1307;59770;-71
2021/12/21 10:24:47;;;;;;;12.90;5.20;;;;;;;4.50;60.80;100644.56;102867;1311;59808;-71
2021/12/21 10:27:44;;;;;;;13.40;4.70;;;;;;;6.29;57.09;100641.36;102338;1314;70921;-71
2021/12/21 10:30:32;;;;;;;10.90;4.80;;;;;;;8.13;52.53;100636.52;102517;1311;67090;-72
2021/12/21 10:33:26;;;;;;;11.50;4.20;;;;;;;9.73;48.17;100628.36;103000;1313;71958;-72
2021/12/21 10:36:15;;;;;;;9.50;3.50;;;;;;;10.63;44.15;100620.29;102594;1311;59590;-73
2021/12/21 10:39:03;;;;;;;9.20;3.50;;;;;;;9.48;44.20;100626.24;102207;1313;60920;-72
2021/12/21 10:42:01;;;;;;;9.60;3.50;;;;;;;7.88;46.33;100634.44;102473;1310;71015;-72
2021/12/21 10:44:50;;;;;;;8.50;3.50;;;;;;;6.29;49.00;100641.90;102604;1311;68854;-71
2021/12/21 10:47:38;;;;;;;9.80;3.40;;;;;;;5.02;52.51;100639.31;102184;1310;73344;-71
2021/12/21 10:50:29;;;;;;;8.00;3.20;;;;;;;3.88;55.40;100634.51;102400;1311;59790;-70
2021/12/21 10:53:28;;;;;;;7.90;3.40;;;;;;;2.97;58.08;100641.71;102575;1310;60401;-70
2021/12/21 10:56:18;;;;;;;8.90;3.60;;;;;;;2.20;59.79;100641.98;102648;1314;72696;-70
2021/12/21 10:59:11;;;;;;;9.00;3.80;;;;;;;2.36;61.45;100636.86;102673;1311;68189;-71
2021/12/21 11:02:11;;;;;;;8.70;3.70;;;;;;;3.91;59.09;100629.09;102843;1314;73233;-72
2021/12/21 11:05:17;;;;;;;7.90;3.70;;;;;;;5.32;55.62;100622.63;102593;1313;59787;-71
2021/12/21 11:08:07;;;;;;;8.10;3.50;;;;;;;7.00;51.31;100616.34;102614;1311;60937;-72
2021/12/21 11:10:58;;;;;;;9.10;3.90;;;;;;;8.31;47.84;100607.04;102960;1311;71929;-72
2021/12/21 11:13:46;;;;;;;8.60;3.60;;;;;;;9.30;44.64;100603.66;102812;1310;69490;-72
2021/12/21 11:20:55;;;;;;;8.60;4.10;;;;;;;7.22;46.72;100623.25;102761;1311;59764;-71
2021/12/21 11:23:43;;;;;;;10.30;4.00;;;;;;;5.88;50.31;100620.66;100511;1311;1003932;-71
2021/12/21 11:26:33;;;;;;;8.70;3.60;;;;;;;4.68;53.60;100619.34;102698;1311;71884;-71
2021/12/21 11:29:20;;;;;;;7.90;3.40;;;;;;;3.57;57.38;100624.89;102791;1314;66850;-71
2021/12/21 11:32:12;;;;;;;9.00;2.80;;;;;;;2.68;59.67;100625.77;102503;1310;73640;-70
2021/12/21 11:38:05;;;;;;;8.40;3.20;;;;;;;1.17;64.27;100630.54;102656;1310;59679;-70
2021/12/21 11:40:57;;;;;;;7.80;3.00;;;;;;;0.57;66.35;100638.16;102718;1316;73549;-71
2021/12/21 11:44:23;;;;;;;10.10;4.20;;;;;;;0.10;68.23;100646.54;102457;1311;67892;-70
2021/12/21 11:47:17;;;;;;;8.60;3.20;;;;;;;-0.26;70.60;100651.77;102454;1317;72955;-69
2021/12/21 11:50:09;;;;;;;8.10;3.30;;;;;;;0.88;70.49;100640.95;102574;1317;59799;-70
2021/12/21 11:53:05;;;;;;;9.00;3.20;;;;;;;2.09;66.70;100634.83;102928;1310;59611;-70
2021/12/21 11:55:53;;;;;;;8.30;3.00;;;;;;;2.62;63.70;100625.12;102396;1310;72416;-70
2021/12/21 11:58:45;;;;;;;8.00;3.30;;;;;;;2.58;62.48;100621.41;101853;1310;1003704;-70
2021/12/21 12:01:32;;;;;;;7.40;3.10;;;;;;;2.25;62.06;100623.77;102921;1310;71420;-70
2021/12/21 12:04:20;;;;;;;7.60;3.30;;;;;;;2.01;62.82;100623.70;102544;1313;59687;-70
2021/12/21 12:07:19;;;;;;;8.30;3.30;;;;;;;1.97;62.82;100629.42;102669;1316;59708;-71
2021/12/21 12:10:21;;;;;;;9.10;3.60;;;;;;;2.36;61.91;100625.84;102796;1311;73511;-70
2021/12/21 12:13:25;;;;;;;8.40;3.30;;;;;;;2.85;61.00;100623.23;102788;1313;67035;-70
2021/12/21 12:16:16;;;;;;;7.70;3.20;;;;;;;2.74;60.45;100625.02;102431;1310;71725;-70
2021/12/21 12:19:24;;;;;;;8.60;3.40;;;;;;;2.30;61.02;100627.46;102897;1314;60944;-70
2021/12/21 12:22:15;;;;;;;8.50;3.50;;;;;;;1.77;62.37;100637.25;102909;1313;60131;-70
2021/12/21 12:25:06;;;;;;;8.90;3.50;;;;;;;1.27;64.28;100637.40;102630;1317;71833;-71
2021/12/21 12:27:54;;;;;;;8.00;3.30;;;;;;;0.85;66.33;100641.40;102583;1316;67191;-70
2021/12/21 12:30:49;;;;;;;8.40;3.20;;;;;;;0.48;68.35;100638.23;102175;1313;71511;-69
2021/12/21 12:33:42;;;;;;;8.80;2.70;;;;;;;0.12;70.03;100637.77;102285;1317;59663;-70
2021/12/21 12:36:50;;;;;;;8.20;3.00;;;;;;;-0.24;71.41;100643.17;102690;1317;59708;-70
2021/12/21 12:39:44;;;;;;;9.00;2.80;;;;;;;-0.59;72.57;100644.66;102905;1310;73488;-70
2021/12/21 12:42:37;;;;;;;7.00;2.60;;;;;;;-0.87;73.99;100647.03;102069;1313;1003916;-69
2021/12/21 12:45:38;;;;;;;7.70;2.70;;;;;;;-1.13;75.04;100646.34;102622;1314;72979;-69
2021/12/21 12:48:48;;;;;;;8.10;2.80;;;;;;;-1.35;75.73;100643.98;102532;1313;59742;-69
2021/12/21 12:51:38;;;;;;;8.00;2.90;;;;;;;-1.49;77.02;100640.77;102765;1316;60938;-70
2021/12/21 12:54:26;;;;;;;8.50;3.30;;;;;;;-1.61;77.47;100638.89;102500;1317;72008;-70
2021/12/21 12:57:35;;;;;;;9.40;3.40;;;;;;;-1.63;78.33;100639.81;102684;1311;65832;-69
2021/12/21 13:00:32;;;;;;;10.00;3.30;;;;;;;-1.63;79.16;100642.93;102306;1313;70215;-70
2021/12/21 13:03:21;;;;;;;7.90;2.70;;;;;;;-1.61;79.05;100639.95;102407;1317;59709;-70
2021/12/21 13:06:22;;;;;;;7.60;3.00;;;;;;;-1.57;79.67;100638.98;101806;1317;1004328;-69
2021/12/21 13:09:18;;;;;;;8.30;2.90;;;;;;;-1.56;79.63;100639.15;102406;1319;73291;-69
2021/12/21 13:12:11;;;;;;;9.20;3.50;;;;;;;-1.58;79.72;100642.13;101475;1309;1002589;-69
2021/12/21 13:14:59;;;;;;;11.40;4.20;;;;;;;-1.61;79.93;100646.72;102552;1320;72769;-69
2021/12/21 13:17:46;;;;;;;9.50;3.50;;;;;;;-1.68;80.12;100646.33;102108;1320;59761;-71
2021/12/21 13:20:37;;;;;;;9.20;3.40;;;;;;;-1.76;80.32;100653.61;101942;1320;59622;-68
2021/12/21 13:23:26;;;;;;;9.90;3.20;;;;;;;-1.87;80.54;100658.49;102684;1314;70581;-69
2021/12/21 13:26:13;;;;;;;8.40;3.10;;;;;;;-2.00;81.47;100654.00;102113;1320;66756;-70
2021/12/21 13:29:03;;;;;;;8.30;2.90;;;;;;;-2.10;82.34;100659.38;102801;1317;71542;-69
2021/12/21 13:31:55;;;;;;;8.60;2.90;;;;;;;-2.18;82.69;100658.64;102303;1320;59726;-71
2021/12/21 13:34:47;;;;;;;8.50;3.20;;;;;;;-2.26;83.88;100657.20;101750;1320;1003168;-70
2021/12/21 13:37:35;;;;;;;10.70;3.30;;;;;;;-2.32;83.58;100657.45;102424;1317;70862;-71
2021/12/21 13:40:23;;;;;;;9.50;3.40;;;;;;;-2.35;83.81;100660.29;102788;1314;67010;-71
2021/12/21 13:43:15;;;;;;;9.40;3.10;;;;;;;-2.41;83.66;100663.17;102960;1314;73211;-70
2021/12/21 13:46:09;;;;;;;10.10;3.40;;;;;;;-2.48;83.44;100662.22;102564;1317;59567;-71
2021/12/21 13:48:58;;;;;;;7.70;3.00;;;;;;;-2.54;83.69;100669.27;102865;1310;60609;-71
2021/12/21 13:51:57;;;;;;;8.40;3.00;;;;;;;-2.64;83.61;100667.30;102650;1317;73539;-70
2021/12/21 13:54:45;;;;;;;7.10;2.90;;;;;;;-2.72;83.99;100673.48;103168;1310;68348;-71
2021/12/21 13:57:33;;;;;;;7.00;2.70;;;;;;;-2.79;84.77;100677.05;102729;1315;72995;-70
2021/12/21 14:00:27;;;;;;;8.60;3.10;;;;;;;-2.82;84.58;100678.30;102100;1310;647808;-70
2021/12/21 14:03:20;;;;;;;10.80;3.40;;;;;;;-2.87;85.75;100677.52;102316;1316;1003065;-71
2021/12/21 14:06:11;;;;;;;9.50;3.30;;;;;;;-2.89;84.69;100675.80;102003;1311;1002844;-70
2021/12/21 14:09:02;;;;;;;9.10;3.60;;;;;;;-2.89;83.63;100677.52;102118;1316;1003705;-70
2021/12/21 14:11:56;;;;;;;12.70;3.80;;;;;;;-2.91;83.92;100674.42;102656;1310;72700;-70
2021/12/21 14:14:43;;;;;;;10.40;4.30;;;;;;;-2.96;84.03;100667.02;102825;1315;59697;-70